Time;durP1;ratioP1;P1;durP2;ratioP2;P2;SDS_P1;SDS_P2;PMS_P1;PMS_P2;Temp;Humidity;BMP_temperature;BMP_pressure;BME280_temperature;BME280_humidity;BME280_pressure;Samples;Min_cycle;Max_cycle;Signal;HPM_P1;HPM_P2
2022/09/10 00:01:58;;;;;;;2.03;0.57;;;19.20;55.50;;;;;;4997878;28;20054;-58
2022/09/10 00:04:27;;;;;;;4.03;0.88;;;19.30;55.50;;;;;;5001661;28;20550;-55
2022/09/10 00:06:55;;;;;;;3.05;0.50;;;19.20;55.50;;;;;;5003510;28;20064;-56
2022/09/10 00:09:23;;;;;;;2.75;0.60;;;19.30;55.50;;;;;;5001230;28;20512;-56
2022/09/10 00:11:50;;;;;;;7.22;1.02;;;19.20;55.50;;;;;;4998694;28;20057;-57
2022/09/10 00:14:20;;;;;;;3.33;0.90;;;19.20;55.50;;;;;;5002162;28;20106;-57
2022/09/10 00:16:48;;;;;;;2.83;0.88;;;19.20;55.60;;;;;;5001945;28;20057;-58
2022/09/10 00:19:17;;;;;;;2.28;0.65;;;19.20;55.60;;;;;;4991735;28;20604;-56
2022/09/10 00:21:45;;;;;;;2.85;0.52;;;19.20;55.60;;;;;;4998503;28;20062;-59
2022/09/10 00:24:13;;;;;;;2.67;0.73;;;19.20;55.60;;;;;;5002098;28;20050;-55
2022/09/10 00:26:40;;;;;;;3.67;0.77;;;19.20;55.70;;;;;;4999818;28;20061;-56
2022/09/10 00:29:09;;;;;;;3.70;0.68;;;19.20;55.80;;;;;;5000621;28;20058;-56
2022/09/10 00:31:37;;;;;;;2.40;0.60;;;19.20;55.80;;;;;;4998031;28;20053;-57
2022/09/10 00:34:05;;;;;;;3.65;0.80;;;19.20;55.80;;;;;;5002081;28;20576;-55
2022/09/10 00:36:34;;;;;;;3.17;0.77;;;19.20;55.90;;;;;;5000785;28;20517;-56
2022/09/10 00:39:05;;;;;;;2.42;0.77;;;19.20;55.90;;;;;;4997768;28;20069;-59
2022/09/10 00:41:34;;;;;;;0.75;0.40;;;19.20;55.80;;;;;;4995491;28;20425;-56
2022/09/10 00:44:02;;;;;;;3.47;0.90;;;19.20;55.80;;;;;;5000105;28;20072;-57
2022/09/10 00:46:37;;;;;;;1.80;0.45;;;19.20;55.90;;;;;;5000690;28;20691;-55
2022/09/10 00:49:05;;;;;;;;;;;19.20;55.90;;;;;;5000858;28;20054;-55
2022/09/10 00:51:35;;;;;;;3.83;0.98;;;19.20;55.80;;;;;;4998667;28;19921;-55
2022/09/10 00:54:05;;;;;;;1.40;0.60;;;19.30;55.80;;;;;;5001877;28;20504;-57
2022/09/10 00:56:33;;;;;;;2.30;0.60;;;19.20;55.80;;;;;;5000955;28;20050;-57
2022/09/10 00:59:01;;;;;;;1.50;0.70;;;19.20;55.90;;;;;;4999909;28;20421;-55
2022/09/10 01:01:29;;;;;;;1.95;0.60;;;19.20;56.00;;;;;;4997849;28;20410;-57
2022/09/10 01:03:57;;;;;;;1.38;0.57;;;19.20;55.90;;;;;;5001346;28;20050;-57
2022/09/10 01:06:24;;;;;;;1.48;0.57;;;19.20;55.90;;;;;;5002571;28;20053;-55
2022/09/10 01:08:52;;;;;;;2.95;0.85;;;19.20;56.00;;;;;;4999611;28;20054;-56
2022/09/10 01:11:44;;;;;;;3.97;0.90;;;19.20;56.00;;;;;;4995370;28;20050;-56
2022/09/10 01:14:34;;;;;;;1.42;0.55;;;19.20;56.10;;;;;;5001163;28;20057;-55
2022/09/10 01:17:08;;;;;;;1.98;0.68;;;19.20;56.10;;;;;;4997271;28;20054;-56
2022/09/10 01:19:49;;;;;;;;;;;19.20;56.10;;;;;;4998331;28;20053;-59
2022/09/10 01:22:27;;;;;;;2.05;0.40;;;19.30;56.00;;;;;;4996197;28;19921;-55
2022/09/10 01:24:57;;;;;;;1.30;0.30;;;19.30;56.00;;;;;;5001214;28;20054;-58
2022/09/10 01:27:37;;;;;;;3.35;0.60;;;19.20;56.00;;;;;;5000352;28;20065;-55
2022/09/10 01:30:09;;;;;;;1.17;0.60;;;19.20;56.20;;;;;;4997023;28;20053;-56
2022/09/10 01:32:56;;;;;;;3.63;0.60;;;19.20;56.20;;;;;;5000576;28;20053;-58
2022/09/10 01:35:29;;;;;;;2.35;0.50;;;19.20;56.40;;;;;;5004766;28;20066;-55
2022/09/10 01:37:59;;;;;;;2.83;0.40;;;19.20;56.30;;;;;;5000477;28;20060;-56
2022/09/10 01:40:28;;;;;;;1.52;0.80;;;19.20;56.40;;;;;;4999745;28;20054;-56
2022/09/10 01:43:01;;;;;;;1.67;0.63;;;19.20;56.50;;;;;;5004465;28;20693;-56
2022/09/10 01:45:29;;;;;;;1.10;0.50;;;19.20;56.60;;;;;;5001296;28;20398;-56
2022/09/10 01:48:22;;;;;;;1.63;0.60;;;19.20;56.60;;;;;;5006193;28;20060;-57
2022/09/10 01:51:03;;;;;;;4.70;0.68;;;19.20;56.70;;;;;;4996932;28;20089;-59
2022/09/10 01:53:54;;;;;;;2.15;0.43;;;19.20;56.70;;;;;;5003677;28;20058;-55
2022/09/10 01:56:34;;;;;;;2.65;0.85;;;19.20;56.80;;;;;;5004593;28;20069;-56
2022/09/10 01:59:10;;;;;;;2.03;0.60;;;19.20;56.80;;;;;;5002448;28;20054;-57
2022/09/10 02:01:43;;;;;;;1.30;0.50;;;19.10;56.80;;;;;;4998871;28;20054;-56
2022/09/10 02:04:13;;;;;;;0.93;0.60;;;19.20;56.90;;;;;;5006205;28;20421;-55
2022/09/10 02:06:45;;;;;;;3.10;0.63;;;19.10;56.80;;;;;;5005744;28;20064;-59
2022/09/10 02:09:14;;;;;;;1.85;0.60;;;19.20;57.00;;;;;;5001479;28;20060;-59
2022/09/10 02:11:47;;;;;;;1.98;0.77;;;19.10;56.90;;;;;;4999318;28;20049;-56
2022/09/10 02:14:16;;;;;;;0.85;0.50;;;19.10;57.00;;;;;;5003514;28;20061;-59
2022/09/10 02:16:50;;;;;;;1.55;0.50;;;19.10;57.00;;;;;;5004421;28;20405;-57
2022/09/10 02:19:17;;;;;;;2.45;1.00;;;19.10;57.00;;;;;;5001485;28;20068;-56
2022/09/10 02:21:45;;;;;;;3.42;0.52;;;19.10;57.00;;;;;;5002400;28;20057;-55
2022/09/10 02:24:13;;;;;;;2.47;0.93;;;19.10;57.10;;;;;;5005686;28;20054;-58
2022/09/10 02:26:43;;;;;;;4.00;0.85;;;19.10;57.20;;;;;;5004381;28;20064;-57
2022/09/10 02:29:12;;;;;;;1.23;0.50;;;19.10;57.30;;;;;;5004079;28;20053;-59
2022/09/10 02:31:42;;;;;;;1.52;0.50;;;19.10;57.30;;;;;;4999880;28;20061;-56
2022/09/10 02:34:09;;;;;;;1.15;0.50;;;19.10;57.30;;;;;;5004168;28;20057;-56
2022/09/10 02:36:37;;;;;;;3.55;0.70;;;19.10;57.30;;;;;;5004962;28;20050;-55
2022/09/10 02:39:06;;;;;;;2.40;0.65;;;19.10;57.50;;;;;;5002349;28;20409;-59
2022/09/10 02:41:34;;;;;;;2.45;0.60;;;19.00;57.40;;;;;;4997272;28;20046;-56
2022/09/10 02:44:02;;;;;;;2.67;0.65;;;19.00;57.40;;;;;;5003811;28;20485;-56
2022/09/10 02:46:30;;;;;;;2.30;0.77;;;19.00;57.40;;;;;;5002247;28;20046;-56
2022/09/10 02:48:59;;;;;;;1.77;0.60;;;19.10;57.50;;;;;;5004127;28;20415;-55
2022/09/10 02:51:26;;;;;;;1.58;0.57;;;19.00;57.50;;;;;;4999404;28;20053;-58
2022/09/10 02:53:54;;;;;;;1.50;0.52;;;19.00;57.50;;;;;;5003689;28;20077;-57
2022/09/10 02:56:22;;;;;;;2.47;0.73;;;19.00;57.40;;;;;;5007245;28;20068;-61
2022/09/10 02:58:49;;;;;;;0.98;0.55;;;19.00;57.40;;;;;;5006324;28;20058;-61
2022/09/10 03:01:19;;;;;;;2.90;0.60;;;19.10;57.60;;;;;;5005420;28;20062;-61
2022/09/10 03:03:50;;;;;;;2.20;0.68;;;19.00;57.60;;;;;;5007109;28;20057;-61
2022/09/10 03:06:20;;;;;;;3.10;0.70;;;19.00;57.60;;;;;;5010184;28;20516;-61
2022/09/10 03:08:47;;;;;;;3.13;0.70;;;19.00;58.10;;;;;;5008042;28;20108;-61
2022/09/10 03:11:15;;;;;;;1.73;0.50;;;19.00;57.60;;;;;;5005667;28;20073;-61
2022/09/10 03:13:44;;;;;;;3.28;0.68;;;19.00;57.60;;;;;;5011341;28;20049;-61
2022/09/10 03:16:12;;;;;;;2.00;0.60;;;19.00;57.70;;;;;;5012330;28;20068;-61
2022/09/10 03:18:40;;;;;;;2.05;0.70;;;19.00;57.70;;;;;;5008897;28;20065;-61
2022/09/10 03:21:13;;;;;;;1.27;0.60;;;19.00;57.70;;;;;;5008140;28;20050;-61
2022/09/10 03:23:43;;;;;;;2.25;0.80;;;19.10;57.80;;;;;;5013645;28;20573;-61
2022/09/10 03:26:10;;;;;;;1.77;0.60;;;19.10;57.80;;;;;;5013146;28;20083;-62
2022/09/10 03:28:38;;;;;;;2.30;0.55;;;19.10;57.70;;;;;;5008651;28;20065;-61
2022/09/10 03:31:05;;;;;;;1.85;0.70;;;19.10;57.70;;;;;;5008473;28;20061;-61
2022/09/10 03:33:33;;;;;;;1.90;0.65;;;19.10;57.70;;;;;;5009269;28;20050;-61
2022/09/10 03:36:01;;;;;;;1.35;0.50;;;19.10;57.70;;;;;;5011291;28;20050;-61
2022/09/10 03:38:28;;;;;;;3.60;0.70;;;19.10;57.70;;;;;;5008911;28;20061;-61
2022/09/10 03:40:57;;;;;;;1.75;0.50;;;19.10;57.70;;;;;;5004831;28;20053;-61
2022/09/10 03:43:24;;;;;;;2.10;0.50;;;19.10;57.80;;;;;;5011721;28;20049;-61
2022/09/10 03:45:52;;;;;;;1.88;0.60;;;19.10;57.80;;;;;;5012194;28;20057;-61
2022/09/10 03:48:20;;;;;;;1.23;0.60;;;19.10;57.80;;;;;;5013154;28;20064;-61
2022/09/10 03:50:48;;;;;;;1.23;0.60;;;19.10;57.90;;;;;;5007291;28;20050;-61
2022/09/10 03:53:17;;;;;;;0.60;0.50;;;19.10;57.80;;;;;;5011469;28;20521;-61
2022/09/10 03:55:45;;;;;;;3.40;0.60;;;19.00;57.90;;;;;;5008532;28;20054;-61
2022/09/10 03:58:15;;;;;;;2.92;0.82;;;19.10;57.90;;;;;;5008980;28;20391;-61
2022/09/10 04:00:43;;;;;;;0.80;0.45;;;19.10;57.90;;;;;;5008348;28;20156;-61
2022/09/10 04:03:10;;;;;;;4.05;0.90;;;19.10;57.80;;;;;;5016002;28;20054;-61
2022/09/10 04:05:39;;;;;;;1.90;0.57;;;19.10;57.80;;;;;;5010653;28;20057;-61
2022/09/10 04:08:08;;;;;;;1.17;0.47;;;19.10;57.80;;;;;;5014195;28;20054;-61
2022/09/10 04:10:36;;;;;;;2.50;0.85;;;19.10;57.80;;;;;;5007538;28;20939;-61
2022/09/10 04:13:03;;;;;;;2.55;0.52;;;19.10;57.80;;;;;;5006793;28;20054;-60
2022/09/10 04:15:36;;;;;;;1.98;0.80;;;19.10;57.80;;;;;;5014946;28;20061;-61
2022/09/10 04:18:04;;;;;;;1.40;0.43;;;19.10;57.80;;;;;;5006717;28;20049;-61
2022/09/10 04:20:32;;;;;;;1.48;0.70;;;19.10;57.80;;;;;;5011587;28;20050;-61
2022/09/10 04:23:00;;;;;;;2.85;0.70;;;19.10;57.80;;;;;;5010714;28;20411;-60
2022/09/10 04:25:27;;;;;;;0.88;0.55;;;19.10;57.90;;;;;;5009539;28;20058;-61
2022/09/10 04:27:55;;;;;;;2.90;0.63;;;19.10;57.80;;;;;;5012428;28;20417;-61
2022/09/10 04:30:22;;;;;;;1.25;0.40;;;19.10;57.80;;;;;;5008837;28;20054;-61
2022/09/10 04:32:51;;;;;;;0.77;0.43;;;19.10;57.80;;;;;;5011806;28;20069;-61
2022/09/10 04:35:19;;;;;;;1.75;0.60;;;19.00;57.80;;;;;;5014072;28;20061;-61
2022/09/10 04:37:46;;;;;;;5.75;2.55;;;19.10;57.90;;;;;;5015870;28;20054;-61
2022/09/10 04:40:13;;;;;;;4.65;2.28;;;19.10;58.00;;;;;;5015268;28;20053;-61
2022/09/10 04:42:41;;;;;;;4.38;1.30;;;19.00;57.90;;;;;;5011597;28;21995;-61
2022/09/10 04:45:08;;;;;;;1.83;0.90;;;19.00;57.90;;;;;;5012609;28;20524;-61
2022/09/10 04:47:36;;;;;;;3.10;1.00;;;19.10;58.00;;;;;;5014979;28;20053;-61
2022/09/10 04:50:06;;;;;;;2.75;0.80;;;19.10;58.00;;;;;;5008738;28;20565;-60
2022/09/10 04:52:33;;;;;;;1.58;0.60;;;19.10;58.00;;;;;;5016061;28;20064;-61
2022/09/10 04:55:00;;;;;;;1.20;0.40;;;19.10;58.00;;;;;;5013678;28;20058;-61
2022/09/10 04:57:27;;;;;;;1.55;0.82;;;19.10;58.00;;;;;;5008370;28;20510;-61
2022/09/10 04:59:55;;;;;;;8.48;2.95;;;19.10;58.00;;;;;;5005666;28;20053;-61
2022/09/10 05:02:23;;;;;;;3.30;1.98;;;19.10;58.00;;;;;;5008800;28;20053;-61
2022/09/10 05:04:50;;;;;;;3.63;1.13;;;19.10;58.00;;;;;;5007690;28;20052;-61
2022/09/10 05:07:19;;;;;;;3.15;0.73;;;19.10;57.90;;;;;;5005770;28;20050;-61
2022/09/10 05:09:46;;;;;;;2.30;0.52;;;19.10;57.90;;;;;;5006761;28;20061;-61
2022/09/10 05:12:14;;;;;;;2.97;0.65;;;19.10;58.00;;;;;;5005621;28;20284;-61
2022/09/10 05:14:41;;;;;;;1.58;0.40;;;19.10;58.00;;;;;;5006600;28;20405;-61
2022/09/10 05:17:08;;;;;;;2.72;0.52;;;19.10;58.00;;;;;;5007065;28;20490;-61
2022/09/10 05:19:35;;;;;;;0.65;0.50;;;19.10;58.00;;;;;;5003345;28;20053;-61
2022/09/10 05:22:02;;;;;;;2.38;0.70;;;19.10;58.00;;;;;;5003725;28;20061;-61
2022/09/10 05:24:33;;;;;;;1.33;0.43;;;19.10;58.00;;;;;;5005919;28;20062;-61
2022/09/10 05:27:00;;;;;;;24.92;10.40;;;19.10;58.10;;;;;;5003028;28;20061;-61
2022/09/10 05:29:27;;;;;;;14.27;6.78;;;19.10;58.00;;;;;;5006288;28;20057;-61
2022/09/10 05:31:54;;;;;;;4.15;2.08;;;19.10;58.00;;;;;;5005806;28;20489;-61
2022/09/10 05:34:21;;;;;;;1.70;0.80;;;19.10;58.10;;;;;;5008117;28;20085;-61
2022/09/10 05:36:49;;;;;;;2.25;0.80;;;19.10;58.20;;;;;;5006922;28;20083;-61
2022/09/10 05:39:16;;;;;;;2.25;0.80;;;19.10;58.10;;;;;;5004459;28;20065;-61
2022/09/10 05:41:44;;;;;;;2.95;0.50;;;19.10;58.10;;;;;;4997845;28;20049;-61
2022/09/10 05:44:13;;;;;;;1.65;0.50;;;19.10;58.20;;;;;;5000744;28;20505;-61
2022/09/10 05:46:41;;;;;;;2.45;0.80;;;19.10;58.20;;;;;;5005368;28;20509;-61
2022/09/10 05:49:09;;;;;;;2.30;0.80;;;19.10;58.20;;;;;;5004195;28;20501;-61
2022/09/10 05:51:36;;;;;;;1.33;0.52;;;19.10;58.20;;;;;;4998637;28;20062;-61
2022/09/10 05:54:03;;;;;;;2.10;0.60;;;19.10;58.20;;;;;;5002814;28;20054;-61
2022/09/10 05:56:31;;;;;;;7.20;0.60;;;19.20;58.30;;;;;;5003615;28;20436;-62
2022/09/10 05:58:59;;;;;;;2.33;0.82;;;19.10;58.30;;;;;;5002048;28;20117;-61
2022/09/10 06:01:28;;;;;;;2.08;0.73;;;19.20;58.30;;;;;;4988496;28;20049;-61
2022/09/10 06:03:55;;;;;;;2.30;0.60;;;19.20;58.30;;;;;;5001481;28;20510;-61
2022/09/10 06:06:23;;;;;;;0.88;0.60;;;19.20;58.30;;;;;;5002906;28;20065;-62
2022/09/10 06:08:52;;;;;;;0.65;0.50;;;19.20;58.20;;;;;;5000329;28;20065;-61
2022/09/10 06:11:19;;;;;;;1.50;0.52;;;19.20;58.70;;;;;;4994827;28;20057;-62
2022/09/10 06:13:46;;;;;;;2.90;0.55;;;19.20;58.20;;;;;;5003683;28;20053;-61
2022/09/10 06:16:16;;;;;;;1.92;0.60;;;19.20;58.30;;;;;;5001630;28;20081;-61
2022/09/10 06:18:43;;;;;;;2.05;0.68;;;19.20;58.30;;;;;;5003063;28;20057;-62
2022/09/10 06:21:13;;;;;;;1.45;0.60;;;19.20;58.30;;;;;;5001981;28;20066;-61
2022/09/10 06:23:41;;;;;;;2.78;0.70;;;19.30;58.30;;;;;;5004779;28;20065;-62
2022/09/10 06:26:11;;;;;;;1.45;0.40;;;19.20;58.30;;;;;;5006492;28;20061;-61
2022/09/10 06:28:39;;;;;;;1.48;0.50;;;19.20;58.30;;;;;;5003030;28;20069;-62
2022/09/10 06:31:07;;;;;;;2.00;0.70;;;19.30;58.40;;;;;;5001220;28;20065;-62
2022/09/10 06:33:36;;;;;;;1.38;0.57;;;19.30;58.40;;;;;;5005412;28;20077;-61
2022/09/10 06:36:03;;;;;;;4.85;0.68;;;19.30;58.40;;;;;;5005984;28;20422;-62
2022/09/10 06:38:32;;;;;;;1.42;0.60;;;19.30;58.50;;;;;;5004278;28;20061;-61
2022/09/10 06:41:03;;;;;;;2.13;0.70;;;19.40;58.60;;;;;;4995992;28;20054;-62
2022/09/10 06:43:35;;;;;;;1.58;0.63;;;19.40;58.50;;;;;;4992341;28;20054;-62
2022/09/10 06:46:04;;;;;;;2.33;0.50;;;19.40;58.60;;;;;;4994136;28;20053;-62
2022/09/10 06:48:31;;;;;;;2.47;0.68;;;19.40;58.60;;;;;;5003364;28;20709;-63
2022/09/10 06:51:01;;;;;;;1.30;0.43;;;19.50;58.60;;;;;;4993025;28;20051;-62
2022/09/10 06:53:29;;;;;;;2.22;0.50;;;19.50;58.50;;;;;;4998636;28;20409;-62
2022/09/10 06:55:56;;;;;;;1.75;0.60;;;19.50;58.70;;;;;;5002997;28;20061;-62
2022/09/10 06:58:24;;;;;;;1.23;0.50;;;19.60;58.70;;;;;;4993407;28;20050;-62
2022/09/10 07:00:52;;;;;;;3.33;0.70;;;19.60;58.70;;;;;;4996020;28;20421;-62
2022/09/10 07:03:21;;;;;;;1.88;0.47;;;19.60;58.70;;;;;;4996762;28;20058;-62
2022/09/10 07:05:49;;;;;;;1.95;0.60;;;19.70;58.70;;;;;;5000890;28;20055;-62
2022/09/10 07:08:21;;;;;;;0.90;0.38;;;19.70;58.70;;;;;;5001781;28;20515;-62
2022/09/10 07:10:49;;;;;;;1.85;0.70;;;19.70;58.70;;;;;;4996557;28;20050;-62
2022/09/10 07:13:16;;;;;;;1.42;0.50;;;19.80;58.70;;;;;;4992716;28;20478;-61
2022/09/10 07:15:45;;;;;;;2.47;0.60;;;19.80;58.60;;;;;;5000942;28;20066;-62
2022/09/10 07:18:14;;;;;;;2.00;0.50;;;19.80;58.50;;;;;;4996479;28;20076;-62
2022/09/10 07:20:42;;;;;;;1.50;0.30;;;19.90;58.40;;;;;;4998733;28;20528;-62
2022/09/10 07:23:10;;;;;;;3.30;0.50;;;19.90;58.40;;;;;;4999273;28;20053;-62
2022/09/10 07:25:39;;;;;;;4.53;1.52;;;19.90;58.40;;;;;;5003727;28;20445;-62
2022/09/10 07:28:11;;;;;;;3.80;1.23;;;20.00;58.40;;;;;;5001274;28;20512;-61
2022/09/10 07:30:39;;;;;;;1.52;0.47;;;20.00;58.20;;;;;;4994921;28;20054;-61
2022/09/10 07:33:07;;;;;;;2.60;0.63;;;20.00;58.00;;;;;;5002808;28;20421;-61
2022/09/10 07:35:36;;;;;;;1.90;0.50;;;20.00;58.00;;;;;;4996177;28;20050;-61
2022/09/10 07:38:03;;;;;;;1.35;0.50;;;20.00;58.10;;;;;;4996827;28;20064;-62
2022/09/10 07:40:31;;;;;;;0.45;0.40;;;20.00;57.90;;;;;;4997990;28;20060;-61
2022/09/10 07:42:59;;;;;;;1.35;0.47;;;20.10;58.00;;;;;;5002635;28;20046;-58
2022/09/10 07:45:27;;;;;;;6.25;0.60;;;20.10;58.20;;;;;;4998955;28;20398;-61
2022/09/10 07:47:54;;;;;;;1.50;0.50;;;20.10;58.10;;;;;;5004952;28;20057;-60
2022/09/10 07:50:21;;;;;;;0.90;0.30;;;20.20;57.80;;;;;;4994335;28;20058;-61
2022/09/10 07:52:49;;;;;;;2.17;0.40;;;20.20;57.50;;;;;;5000247;28;20064;-61
2022/09/10 07:55:17;;;;;;;1.92;0.47;;;20.20;57.30;;;;;;5002498;28;20061;-61
2022/09/10 07:57:44;;;;;;;1.23;0.30;;;20.20;57.10;;;;;;4999949;28;20093;-62
2022/09/10 08:00:15;;;;;;;1.13;0.30;;;20.30;56.90;;;;;;4996472;28;20053;-60
2022/09/10 08:02:43;;;;;;;1.60;0.30;;;20.30;56.80;;;;;;4998216;28;20053;-61
2022/09/10 08:05:12;;;;;;;1.92;0.32;;;20.30;56.80;;;;;;5004208;28;20049;-59
2022/09/10 08:07:40;;;;;;;1.75;0.40;;;20.30;56.80;;;;;;5003468;28;20057;-60
2022/09/10 08:10:09;;;;;;;0.50;0.20;;;20.30;56.70;;;;;;4997752;28;20521;-61
2022/09/10 08:12:38;;;;;;;0.55;0.20;;;20.30;56.60;;;;;;5002533;28;20053;-61
2022/09/10 08:15:07;;;;;;;1.42;0.20;;;20.30;56.60;;;;;;5003023;28;20057;-61
2022/09/10 08:17:36;;;;;;;0.80;0.20;;;20.30;56.50;;;;;;5000051;28;20053;-61
2022/09/10 08:20:05;;;;;;;0.63;0.20;;;20.40;56.50;;;;;;4997941;28;20057;-62
2022/09/10 08:22:33;;;;;;;0.65;0.40;;;20.40;56.50;;;;;;5002446;28;20057;-62
2022/09/10 08:25:00;;;;;;;0.95;0.35;;;20.40;56.50;;;;;;5000643;28;20053;-64
2022/09/10 08:27:28;;;;;;;1.83;0.43;;;20.50;56.60;;;;;;5000333;28;20069;-63
2022/09/10 08:29:56;;;;;;;2.17;0.28;;;20.50;56.40;;;;;;4999903;28;20054;-60
2022/09/10 08:32:24;;;;;;;0.57;0.20;;;20.50;56.30;;;;;;4997373;28;20406;-61
2022/09/10 08:34:52;;;;;;;1.38;0.50;;;20.50;56.30;;;;;;5002607;28;20053;-61
2022/09/10 08:37:19;;;;;;;0.80;0.30;;;20.60;56.20;;;;;;5000975;28;20077;-62
2022/09/10 08:39:47;;;;;;;0.60;0.40;;;20.60;56.20;;;;;;4998288;28;20058;-61
2022/09/10 08:42:18;;;;;;;1.40;0.63;;;20.70;56.30;;;;;;4996292;28;20053;-61
2022/09/10 08:44:50;;;;;;;0.65;0.20;;;20.70;56.10;;;;;;5001043;28;20054;-57
2022/09/10 08:47:26;;;;;;;1.77;0.30;;;20.70;55.90;;;;;;4990134;28;20076;-61
2022/09/10 08:49:59;;;;;;;0.95;0.20;;;20.70;55.90;;;;;;4999808;28;20053;-61
2022/09/10 08:52:30;;;;;;;6.07;0.63;;;20.80;55.90;;;;;;5000786;28;20053;-61
2022/09/10 08:55:06;;;;;;;1.92;0.50;;;20.80;55.90;;;;;;5001625;28;20065;-61
2022/09/10 08:57:37;;;;;;;0.77;0.30;;;20.80;55.70;;;;;;5000623;28;20061;-60
2022/09/10 09:00:07;;;;;;;1.42;0.47;;;20.90;55.90;;;;;;4994635;28;20057;-61
2022/09/10 09:02:44;;;;;;;0.50;0.40;;;20.90;56.00;;;;;;4996355;28;20121;-55
2022/09/10 09:05:16;;;;;;;1.52;0.45;;;21.00;56.10;;;;;;5000718;28;20091;-61
2022/09/10 09:07:45;;;;;;;0.70;0.30;;;21.00;56.00;;;;;;5003331;28;20054;-62
2022/09/10 09:10:26;;;;;;;0.40;0.30;;;21.00;56.00;;;;;;4998384;28;20417;-61
2022/09/10 09:13:28;;;;;;;1.75;0.30;;;21.00;56.10;;;;;;5001477;28;20060;-61
2022/09/10 09:16:04;;;;;;;0.75;0.30;;;21.10;56.10;;;;;;4992422;28;20060;-61
2022/09/10 09:18:38;;;;;;;1.05;0.50;;;21.20;55.80;;;;;;4998866;28;20054;-61
2022/09/10 09:21:15;;;;;;;1.17;0.50;;;21.20;55.50;;;;;;5000200;28;20064;-60
2022/09/10 09:23:50;;;;;;;0.43;0.32;;;21.20;55.20;;;;;;4999402;28;20057;-59
2022/09/10 09:26:18;;;;;;;2.97;0.70;;;21.30;55.00;;;;;;5001403;28;20073;-59
2022/09/10 09:28:51;;;;;;;0.65;0.35;;;21.20;54.90;;;;;;5000822;28;20054;-61
2022/09/10 09:31:24;;;;;;;1.30;0.50;;;21.20;54.90;;;;;;4999482;28;20064;-62
2022/09/10 09:33:55;;;;;;;2.22;0.57;;;21.30;55.00;;;;;;5000050;28;20477;-61
2022/09/10 09:36:29;;;;;;;1.20;0.50;;;21.30;55.10;;;;;;5000639;28;20061;-62
2022/09/10 09:38:57;;;;;;;4.28;0.50;;;21.30;55.50;;;;;;4999669;28;20504;-61
2022/09/10 09:41:30;;;;;;;2.78;0.50;;;21.30;55.80;;;;;;4996049;28;20062;-59
2022/09/10 09:44:04;;;;;;;0.63;0.55;;;21.30;56.30;;;;;;5000238;28;20054;-61
2022/09/10 09:46:33;;;;;;;3.72;0.85;;;21.40;55.70;;;;;;5001400;28;20058;-60
2022/09/10 09:49:01;;;;;;;4.00;1.00;;;21.30;55.30;;;;;;5004825;28;20429;-56
2022/09/10 09:51:34;;;;;;;3.92;1.08;;;21.30;54.70;;;;;;4994445;28;20056;-60
2022/09/10 09:54:08;;;;;;;1.20;0.73;;;21.30;54.40;;;;;;4995454;28;20050;-59
2022/09/10 09:56:41;;;;;;;3.25;1.27;;;21.30;54.60;;;;;;5001250;28;20061;-60
2022/09/10 09:59:11;;;;;;;8.88;3.70;;;21.30;54.50;;;;;;5003555;28;20057;-58
2022/09/10 10:01:41;;;;;;;4.28;1.67;;;21.30;54.40;;;;;;5001973;28;20069;-57
2022/09/10 10:04:20;;;;;;;3.50;1.00;;;21.30;54.00;;;;;;5006480;28;20050;-61
2022/09/10 10:06:55;;;;;;;2.50;1.30;;;21.30;53.90;;;;;;5004636;28;20417;-58
2022/09/10 10:09:26;;;;;;;2.20;1.10;;;21.30;53.80;;;;;;5004817;28;20133;-61
2022/09/10 10:11:55;;;;;;;1.45;0.80;;;21.20;53.90;;;;;;4989306;28;20050;-58
2022/09/10 10:14:38;;;;;;;2.38;1.10;;;21.30;53.90;;;;;;4988446;28;20493;-61
2022/09/10 10:17:28;;;;;;;2.55;1.20;;;21.30;53.90;;;;;;5000708;28;20153;-61
2022/09/10 10:20:08;;;;;;;4.15;1.60;;;21.30;53.90;;;;;;4998965;28;20057;-61
2022/09/10 10:22:37;;;;;;;3.33;0.95;;;21.30;53.90;;;;;;4989253;28;20061;-61
2022/09/10 10:25:26;;;;;;;3.47;0.88;;;21.30;54.00;;;;;;4992547;28;20057;-60
2022/09/10 10:27:54;;;;;;;3.80;0.85;;;21.30;53.90;;;;;;4992501;28;20073;-61
2022/09/10 10:30:23;;;;;;;1.70;0.70;;;21.30;53.90;;;;;;4989845;28;20054;-62
2022/09/10 10:32:54;;;;;;;2.33;0.80;;;21.40;53.90;;;;;;4991878;28;20061;-62
2022/09/10 10:35:36;;;;;;;3.97;0.80;;;21.40;53.90;;;;;;4996978;28;20049;-60
2022/09/10 10:38:33;;;;;;;3.03;1.00;;;21.50;53.80;;;;;;4991523;28;20046;-56
2022/09/10 10:41:17;;;;;;;2.92;0.93;;;21.50;53.80;;;;;;4991711;28;20077;-60
2022/09/10 10:43:54;;;;;;;3.13;0.95;;;21.50;53.30;;;;;;5001340;28;20078;-58
2022/09/10 10:46:24;;;;;;;2.38;0.90;;;21.60;53.40;;;;;;5001534;28;20065;-57
2022/09/10 10:49:03;;;;;;;2.65;1.10;;;21.60;53.50;;;;;;5006611;28;20359;-57
2022/09/10 10:51:39;;;;;;;2.55;0.90;;;21.60;53.50;;;;;;4999855;28;20054;-57
2022/09/10 10:54:44;;;;;;;2.60;1.08;;;21.60;53.20;;;;;;5000149;28;20083;-60
2022/09/10 10:57:21;;;;;;;2.45;0.80;;;21.60;53.10;;;;;;5001541;28;20553;-60
2022/09/10 10:59:56;;;;;;;1.38;0.80;;;21.60;53.30;;;;;;5008206;28;20061;-60
2022/09/10 11:02:34;;;;;;;1.77;0.90;;;21.60;53.30;;;;;;5006247;28;20496;-59
2022/09/10 11:05:15;;;;;;;1.48;0.90;;;21.60;53.20;;;;;;5004277;28;20066;-59
2022/09/10 11:07:45;;;;;;;3.40;1.10;;;21.60;53.10;;;;;;5006332;28;20069;-61
2022/09/10 11:10:20;;;;;;;3.40;1.05;;;21.70;53.30;;;;;;4999599;28;20386;-60
2022/09/10 11:12:51;;;;;;;1.60;0.77;;;21.70;53.30;;;;;;5003194;28;20493;-62
2022/09/10 11:15:28;;;;;;;2.35;1.10;;;21.70;53.60;;;;;;5002771;28;20046;-63
2022/09/10 11:18:01;;;;;;;3.40;1.13;;;21.70;53.60;;;;;;5002927;28;20064;-61
2022/09/10 11:20:33;;;;;;;2.40;1.00;;;21.70;53.10;;;;;;4996648;28;20050;-61
2022/09/10 11:23:11;;;;;;;4.38;1.20;;;21.70;53.20;;;;;;5002783;28;20050;-58
2022/09/10 11:25:49;;;;;;;2.35;1.15;;;21.80;53.00;;;;;;5004042;28;20816;-57
2022/09/10 11:28:21;;;;;;;1.73;1.05;;;21.80;52.50;;;;;;5002450;28;20041;-57
2022/09/10 11:30:54;;;;;;;4.47;1.55;;;21.80;52.20;;;;;;5001546;28;20050;-57
2022/09/10 11:33:27;;;;;;;9.70;1.55;;;21.80;51.80;;;;;;5006456;28;20058;-55
2022/09/10 11:36:00;;;;;;;4.63;1.40;;;21.80;51.50;;;;;;5003509;28;20058;-54
2022/09/10 11:38:35;;;;;;;2.85;1.20;;;21.80;51.30;;;;;;5002875;28;20069;-57
2022/09/10 11:41:12;;;;;;;1.85;1.25;;;21.80;51.50;;;;;;5003571;28;20426;-55
2022/09/10 11:43:45;;;;;;;2.17;0.90;;;21.80;51.60;;;;;;5004561;28;20080;-55
2022/09/10 11:46:16;;;;;;;2.33;1.03;;;21.80;51.60;;;;;;5004437;28;20061;-60
2022/09/10 11:48:48;;;;;;;3.22;1.08;;;21.80;51.70;;;;;;5005132;28;20472;-58
2022/09/10 11:51:21;;;;;;;2.72;1.20;;;21.80;51.50;;;;;;5001792;28;20066;-57
2022/09/10 11:53:49;;;;;;;3.60;1.10;;;21.90;51.60;;;;;;5002393;28;20050;-56
2022/09/10 11:56:36;;;;;;;2.80;1.42;;;21.90;51.50;;;;;;5003654;28;20064;-58
2022/09/10 11:59:18;;;;;;;2.17;0.90;;;21.90;51.20;;;;;;5001410;28;20050;-56
2022/09/10 12:02:15;;;;;;;3.35;1.05;;;22.00;51.10;;;;;;5005214;28;20054;-55
2022/09/10 12:04:50;;;;;;;1.80;0.73;;;22.00;50.80;;;;;;4999471;28;20057;-60
2022/09/10 12:07:34;;;;;;;2.72;1.08;;;22.00;51.10;;;;;;4996669;28;20058;-58
2022/09/10 12:10:08;;;;;;;2.40;0.90;;;22.00;51.10;;;;;;5002075;28;20076;-57
2022/09/10 12:12:42;;;;;;;3.38;0.90;;;22.10;51.10;;;;;;5000140;28;20058;-59
2022/09/10 12:15:15;;;;;;;3.92;1.63;;;22.00;51.00;;;;;;5004972;28;20057;-57
2022/09/10 12:17:46;;;;;;;2.05;1.20;;;22.10;51.20;;;;;;5003103;28;20056;-60
2022/09/10 12:20:18;;;;;;;3.20;1.08;;;22.10;51.20;;;;;;5000687;28;20057;-56
2022/09/10 12:22:50;;;;;;;3.60;1.27;;;22.10;51.50;;;;;;5004191;28;20069;-58
2022/09/10 12:25:27;;;;;;;2.72;1.13;;;22.10;51.50;;;;;;5002150;28;20446;-57
2022/09/10 12:27:58;;;;;;;4.40;1.20;;;22.10;51.80;;;;;;5001174;28;20937;-54
2022/09/10 12:31:02;;;;;;;2.22;1.10;;;22.10;51.80;;;;;;5004558;28;20058;-57
2022/09/10 12:34:09;;;;;;;3.20;1.13;;;22.10;51.60;;;;;;4995237;28;20510;-58
2022/09/10 12:37:16;;;;;;;2.92;1.10;;;22.00;51.70;;;;;;4983620;28;20069;-58
2022/09/10 12:39:44;;;;;;;4.63;1.45;;;22.00;51.90;;;;;;4994064;28;20076;-59
2022/09/10 12:42:35;;;;;;;6.93;1.38;;;22.00;52.30;;;;;;4987580;28;20080;-60
2022/09/10 12:45:04;;;;;;;4.18;1.40;;;21.90;52.60;;;;;;4991487;28;20065;-60
2022/09/10 12:47:45;;;;;;;4.32;1.48;;;21.90;52.60;;;;;;4997914;28;20064;-58
2022/09/10 12:50:44;;;;;;;3.20;1.38;;;21.90;52.70;;;;;;4990834;28;20053;-57
2022/09/10 12:53:43;;;;;;;2.17;0.95;;;21.90;52.70;;;;;;4989990;28;20064;-57
2022/09/10 12:56:36;;;;;;;3.33;1.20;;;21.90;52.70;;;;;;4987594;28;20054;-57
2022/09/10 12:59:25;;;;;;;1.00;0.85;;;21.90;52.50;;;;;;4982841;28;20049;-57
2022/09/10 13:01:54;;;;;;;3.25;1.10;;;21.90;52.40;;;;;;4995615;28;20046;-57
2022/09/10 13:04:28;;;;;;;2.78;1.02;;;21.90;52.20;;;;;;4992240;28;20054;-57
2022/09/10 13:06:58;;;;;;;3.25;1.20;;;21.90;52.10;;;;;;4988879;28;20062;-59
2022/09/10 13:09:29;;;;;;;4.85;1.55;;;21.80;52.00;;;;;;4998475;28;20057;-58
2022/09/10 13:12:03;;;;;;;6.10;1.35;;;21.80;52.10;;;;;;4992762;28;20509;-54